createdAt,value
2023-04-25T00:00:10.545Z,6.53
2023-04-25T00:02:39.160Z,5.63
2023-04-25T00:06:27.534Z,6.23
2023-04-25T00:08:57.491Z,6.43
2023-04-25T00:11:27.617Z,6.10
2023-04-25T00:13:58.578Z,8.07
2023-04-25T00:16:36.137Z,5.87
2023-04-25T00:19:06.753Z,6.80
2023-04-25T00:21:35.698Z,5.93
2023-04-25T00:24:07.204Z,7.00
2023-04-25T00:26:38.402Z,6.87
2023-04-25T00:29:07.679Z,6.97
2023-04-25T00:31:36.394Z,7.53
2023-04-25T00:34:05.870Z,6.80
2023-04-25T00:36:37.586Z,8.60
2023-04-25T00:39:11.637Z,7.87
2023-04-25T00:41:49.174Z,7.40
2023-04-25T00:44:19.856Z,7.37
2023-04-25T00:46:55.387Z,8.57
2023-04-25T00:49:25.047Z,8.00
2023-04-25T00:51:54.117Z,7.87
2023-04-25T00:54:22.963Z,8.73
2023-04-25T00:56:51.831Z,10.80
2023-04-25T00:59:23.342Z,9.73
2023-04-25T01:01:54.471Z,9.07
2023-04-25T01:04:23.550Z,8.57
2023-04-25T01:06:53.619Z,9.37
2023-04-25T01:09:25.256Z,9.07
2023-04-25T01:11:53.865Z,9.50
2023-04-25T01:14:22.538Z,8.70
2023-04-25T01:16:54.232Z,10.30
2023-04-25T01:19:25.151Z,8.97
2023-04-25T01:22:02.673Z,9.53
2023-04-25T01:24:35.525Z,7.37
2023-04-25T01:27:08.177Z,7.20
2023-04-25T01:29:38.360Z,6.83
2023-04-25T01:32:09.744Z,7.07
2023-04-25T01:34:39.446Z,8.03
2023-04-25T01:37:10.766Z,6.87
2023-04-25T01:39:47.871Z,7.60
2023-04-25T01:42:24.286Z,7.37
2023-04-25T01:44:52.839Z,6.33
2023-04-25T01:47:21.112Z,6.37
2023-04-25T01:49:50.541Z,7.20
2023-04-25T01:52:30.497Z,6.53
2023-04-25T01:55:02.681Z,6.53
2023-04-25T01:57:31.782Z,6.40
2023-04-25T02:00:10.734Z,6.37
2023-04-25T02:02:39.391Z,7.93
2023-04-25T02:05:10.854Z,7.50
2023-04-25T02:07:40.723Z,7.20
2023-04-25T02:10:12.236Z,7.73
2023-04-25T02:12:43.177Z,7.93
2023-04-25T02:15:12.601Z,7.70
2023-04-25T02:17:50.987Z,7.50
2023-04-25T02:20:28.429Z,7.23
2023-04-25T02:22:58.257Z,8.40
2023-04-25T02:25:35.359Z,7.40
2023-04-25T02:28:06.628Z,7.53
2023-04-25T02:30:39.960Z,7.97
2023-04-25T02:33:07.161Z,6.17
2023-04-25T02:35:37.639Z,5.57
2023-04-25T02:38:05.914Z,5.53
2023-04-25T02:40:34.248Z,6.60
2023-04-25T02:43:04.956Z,6.33
2023-04-25T02:45:35.799Z,5.73
2023-04-25T02:48:05.099Z,6.43
2023-04-25T02:50:34.349Z,5.73
2023-04-25T02:53:02.624Z,4.67
2023-04-25T02:55:32.106Z,5.97
2023-04-25T02:58:00.310Z,4.13
2023-04-25T03:00:31.352Z,5.27
2023-04-25T03:02:59.925Z,4.67
2023-04-25T03:05:30.358Z,4.47
2023-04-25T03:08:00.959Z,5.07
2023-04-25T03:10:29.642Z,5.40
2023-04-25T03:13:00.264Z,6.77
2023-04-25T03:15:29.829Z,6.73
2023-04-25T03:18:06.873Z,6.83
2023-04-25T03:20:43.243Z,6.50
2023-04-25T03:23:12.930Z,6.53
2023-04-25T03:25:43.111Z,5.77
2023-04-25T03:28:13.185Z,6.17
2023-04-25T03:30:44.144Z,4.83
2023-04-25T03:33:12.662Z,5.53
2023-04-25T03:35:43.114Z,6.03
2023-04-25T03:38:12.471Z,5.20
2023-04-25T03:40:42.143Z,5.53
2023-04-25T03:43:11.359Z,5.30
2023-04-25T03:45:39.863Z,6.33
2023-04-25T03:48:09.158Z,8.20
2023-04-25T03:50:39.559Z,21.60
2023-04-25T03:53:09.908Z,12.00
2023-04-25T03:55:40.031Z,7.53
2023-04-25T03:58:09.880Z,17.00
2023-04-25T04:00:38.553Z,15.17
2023-04-25T04:03:07.281Z,9.63
2023-04-25T04:05:39.902Z,14.93
2023-04-25T04:08:11.974Z,10.00
2023-04-25T04:10:40.323Z,16.90
2023-04-25T04:13:08.554Z,22.47
2023-04-25T04:15:45.130Z,12.80
2023-04-25T04:18:22.154Z,20.77
2023-04-25T04:20:51.055Z,28.50
2023-04-25T04:23:18.709Z,17.10
2023-04-25T04:25:49.408Z,13.50
2023-04-25T04:28:19.549Z,14.30
2023-04-25T04:30:56.121Z,13.13
2023-04-25T04:33:26.892Z,11.60
2023-04-25T04:36:07.495Z,10.27
2023-04-25T04:38:41.838Z,9.13
2023-04-25T04:41:12.500Z,9.40
2023-04-25T04:43:41.385Z,10.43
2023-04-25T04:46:12.005Z,5.53
2023-04-25T04:48:50.572Z,5.20
2023-04-25T04:51:20.206Z,4.60
2023-04-25T04:53:51.441Z,4.40
2023-04-25T04:56:23.031Z,5.23
2023-04-25T04:58:54.554Z,5.07
2023-04-25T05:01:23.745Z,4.57
2023-04-25T05:03:53.327Z,5.37
2023-04-25T05:06:22.149Z,3.70
2023-04-25T05:08:51.452Z,4.00
2023-04-25T05:11:20.830Z,4.27
2023-04-25T05:13:51.649Z,3.80
2023-04-25T05:16:22.904Z,16.40
2023-04-25T05:18:51.654Z,6.10
2023-04-25T05:21:22.046Z,9.48
2023-04-25T05:23:51.862Z,3.63
2023-04-25T05:26:25.467Z,3.63
2023-04-25T05:29:02.573Z,5.03
2023-04-25T05:31:39.029Z,4.07
2023-04-25T05:34:08.290Z,3.70
2023-04-25T05:36:45.031Z,4.47
2023-04-25T05:39:15.977Z,3.70
2023-04-25T05:41:47.993Z,4.10
2023-04-25T05:44:19.633Z,3.83
2023-04-25T05:46:47.882Z,3.58
2023-04-25T05:49:25.617Z,3.60
2023-04-25T05:51:54.930Z,4.03
2023-04-25T05:54:24.802Z,3.78
2023-04-25T05:56:53.598Z,3.88
2023-04-25T05:59:23.777Z,3.88
2023-04-25T06:01:54.700Z,3.70
2023-04-25T06:04:30.305Z,5.13
2023-04-25T06:06:59.205Z,4.03
2023-04-25T06:09:28.882Z,3.88
2023-04-25T06:11:57.135Z,3.45
2023-04-25T06:14:27.250Z,5.30
2023-04-25T06:16:58.359Z,4.60
2023-04-25T06:19:29.803Z,5.50
2023-04-25T06:22:00.349Z,5.03
2023-04-25T06:24:31.695Z,5.18
2023-04-25T06:27:02.167Z,4.85
2023-04-25T06:29:32.326Z,4.65
2023-04-25T06:32:01.704Z,4.57
2023-04-25T06:34:34.843Z,4.75
2023-04-25T06:37:11.551Z,5.07
2023-04-25T06:39:48.658Z,5.05
2023-04-25T06:42:17.709Z,4.38
2023-04-25T06:44:48.855Z,4.40
2023-04-25T06:47:17.574Z,3.80
2023-04-25T06:49:46.313Z,6.47
2023-04-25T06:52:15.505Z,4.20
2023-04-25T06:54:44.826Z,3.53
2023-04-25T06:57:19.205Z,4.93
2023-04-25T06:59:48.876Z,4.68
2023-04-25T07:02:24.590Z,4.40
2023-04-25T07:05:01.194Z,4.90
2023-04-25T07:07:38.302Z,4.30
2023-04-25T07:10:18.131Z,3.53
2023-04-25T07:12:54.290Z,3.95
2023-04-25T07:15:26.964Z,3.65
2023-04-25T07:57:29.770Z,3.17
2023-04-25T07:59:56.934Z,3.78
2023-04-25T08:02:27.913Z,2.90
2023-04-25T08:04:57.955Z,2.30
2023-04-25T08:07:26.799Z,3.85
2023-04-25T08:09:56.455Z,2.20
2023-04-25T08:12:37.850Z,2.90
2023-04-25T08:15:11.344Z,1.80
2023-04-25T08:17:42.576Z,2.80
2023-04-25T08:20:20.006Z,1.83
2023-04-25T08:22:47.349Z,2.38
2023-04-25T08:25:14.519Z,2.03
2023-04-25T08:27:42.593Z,1.83
2023-04-25T08:30:21.528Z,2.53
2023-04-25T08:32:59.875Z,3.42
2023-04-25T08:35:28.506Z,2.33
2023-04-25T08:37:57.948Z,2.03
2023-04-25T08:40:33.872Z,1.85
2023-04-25T08:43:05.419Z,2.00
2023-04-25T08:45:35.012Z,2.10
2023-04-25T08:48:11.438Z,2.05
2023-04-25T08:50:59.704Z,3.15
2023-04-25T08:53:38.515Z,2.28
2023-04-25T08:56:12.991Z,1.70
2023-04-25T08:58:55.745Z,1.77
2023-04-25T09:01:26.934Z,2.10
2023-04-25T09:03:55.925Z,1.75
2023-04-25T09:06:32.226Z,1.92
2023-04-25T09:09:14.823Z,2.53
2023-04-25T09:11:43.396Z,2.20
2023-04-25T09:14:36.183Z,1.50
2023-04-25T09:17:11.769Z,2.78
2023-04-25T09:19:45.239Z,1.85
2023-04-25T09:22:15.746Z,2.58
2023-04-25T09:24:51.487Z,2.65
2023-04-25T09:27:29.252Z,3.20
2023-04-25T09:30:03.505Z,1.83
2023-04-25T09:32:32.014Z,2.08
2023-04-25T09:35:08.535Z,2.35
2023-04-25T09:37:39.440Z,2.60
2023-04-25T09:40:12.466Z,1.48
2023-04-25T09:42:44.393Z,2.10
2023-04-25T09:45:16.173Z,2.05
2023-04-25T09:47:49.460Z,2.05
2023-04-25T09:50:21.352Z,1.52
2023-04-25T09:53:07.392Z,1.63
2023-04-25T09:55:38.012Z,1.55
2023-04-25T09:58:12.805Z,2.42
2023-04-25T10:00:43.827Z,2.55
2023-04-25T10:03:22.080Z,1.77
2023-04-25T10:05:56.708Z,1.65
2023-04-25T10:08:35.174Z,1.90
2023-04-25T10:11:11.017Z,1.48
2023-04-25T10:13:39.876Z,2.45
2023-04-25T10:16:12.663Z,2.70
2023-04-25T10:18:50.210Z,1.50
2023-04-25T10:21:25.918Z,1.50
2023-04-25T10:23:56.908Z,1.88
2023-04-25T10:26:31.292Z,4.13
2023-04-25T10:29:13.111Z,1.35
2023-04-25T10:31:56.950Z,2.60
2023-04-25T10:34:48.972Z,1.70
2023-04-25T10:37:16.623Z,1.45
2023-04-25T10:39:45.236Z,1.58
2023-04-25T10:42:15.615Z,2.58
2023-04-25T10:45:11.197Z,1.73
2023-04-25T10:47:46.769Z,1.85
2023-04-25T10:50:23.507Z,1.80
2023-04-25T10:52:56.670Z,2.47
2023-04-25T10:55:26.175Z,1.63
2023-04-25T11:00:48.264Z,2.50
2023-04-25T11:03:27.865Z,1.85
2023-04-25T11:05:58.523Z,2.55
2023-04-25T11:08:55.899Z,2.28
2023-04-25T11:11:26.266Z,2.15
2023-04-25T11:13:55.291Z,2.30
2023-04-25T11:16:35.029Z,2.55
2023-04-25T11:19:05.619Z,3.50
2023-04-25T11:21:41.011Z,1.75
2023-04-25T11:24:17.787Z,2.17
2023-04-25T11:26:50.346Z,1.73
2023-04-25T11:29:18.880Z,2.03
2023-04-25T11:31:47.229Z,1.77
2023-04-25T11:34:21.533Z,3.60
2023-04-25T11:36:56.954Z,2.13
2023-04-25T11:39:34.428Z,2.38
2023-04-25T11:42:07.997Z,1.40
2023-04-25T11:44:42.696Z,2.25
2023-04-25T11:47:10.687Z,2.25
2023-04-25T11:49:41.201Z,1.50
2023-04-25T11:52:15.054Z,1.40
2023-04-25T11:54:49.978Z,2.90
2023-04-25T11:57:24.362Z,1.30
2023-04-25T11:59:52.714Z,1.80
2023-04-25T12:02:31.037Z,1.45
2023-04-25T12:05:29.432Z,1.30
2023-04-25T12:08:28.514Z,2.47
2023-04-25T12:11:04.579Z,2.00
2023-04-25T12:13:37.058Z,1.25
2023-04-25T12:16:07.498Z,2.33
2023-04-25T12:18:40.315Z,1.65
2023-04-25T12:21:11.529Z,1.48
2023-04-25T12:23:43.309Z,1.40
2023-04-25T12:26:13.259Z,2.50
2023-04-25T12:28:52.558Z,1.92
2023-04-25T12:31:30.521Z,2.08
2023-04-25T12:34:07.509Z,2.17
2023-04-25T12:36:37.620Z,2.60
2023-04-25T12:39:10.620Z,1.38
2023-04-25T12:41:47.124Z,2.90
2023-04-25T12:44:16.459Z,3.08
2023-04-25T12:46:47.277Z,1.55
2023-04-25T12:49:19.050Z,3.08
2023-04-25T12:51:48.813Z,1.52
2023-04-25T12:54:18.496Z,1.75
2023-04-25T12:56:48.961Z,1.30
2023-04-25T12:59:19.927Z,2.50
2023-04-25T13:01:48.835Z,2.38
2023-04-25T13:04:22.413Z,2.85
2023-04-25T13:06:51.519Z,1.38
2023-04-25T13:09:19.898Z,2.28
2023-04-25T13:11:48.185Z,2.40
2023-04-25T13:14:26.372Z,2.30
2023-04-25T13:17:03.980Z,1.83
2023-04-25T13:19:35.581Z,3.22
2023-04-25T13:22:06.148Z,1.30
2023-04-25T13:24:38.154Z,1.38
2023-04-25T13:27:05.218Z,1.92
2023-04-25T13:29:37.346Z,2.28
2023-04-25T13:32:13.671Z,1.40
2023-04-25T13:34:43.477Z,1.60
2023-04-25T13:37:13.131Z,3.00
2023-04-25T13:39:42.771Z,1.75
2023-04-25T13:42:13.249Z,1.58
2023-04-25T13:44:41.809Z,3.78
2023-04-25T13:47:19.243Z,1.40
2023-04-25T13:49:50.156Z,2.17
2023-04-25T13:52:24.204Z,1.25
2023-04-25T13:54:52.551Z,1.48
2023-04-25T13:57:24.215Z,1.40
2023-04-25T13:59:52.059Z,1.30
2023-04-25T14:02:21.604Z,1.50
2023-04-25T14:04:49.605Z,2.08
2023-04-25T14:07:24.643Z,1.67
2023-04-25T14:09:54.695Z,2.58
2023-04-25T14:12:23.549Z,2.20
2023-04-25T14:14:52.174Z,1.30
2023-04-25T14:17:23.249Z,3.70
2023-04-25T14:19:51.933Z,4.18
2023-04-25T14:22:19.177Z,2.13
2023-04-25T14:24:48.495Z,1.88
2023-04-25T14:27:16.551Z,1.20
2023-04-25T14:29:49.080Z,1.58
2023-04-25T14:32:17.677Z,3.35
2023-04-25T14:34:57.856Z,2.38
2023-04-25T14:37:28.047Z,2.55
2023-04-25T14:40:02.646Z,2.35
2023-04-25T14:42:35.849Z,1.35
2023-04-25T14:45:17.146Z,1.40
2023-04-25T14:47:54.975Z,1.65
2023-04-25T14:50:27.528Z,1.70
2023-04-25T14:53:03.604Z,1.73
2023-04-25T14:55:32.396Z,2.53
2023-04-25T14:58:02.663Z,1.83
2023-04-25T15:00:36.459Z,2.33
2023-04-25T15:03:04.374Z,1.38
2023-04-25T15:05:32.581Z,2.25
2023-04-25T15:08:01.945Z,1.35
2023-04-25T15:10:32.572Z,1.65
2023-04-25T15:13:03.758Z,2.03
2023-04-25T15:15:31.559Z,1.50
2023-04-25T15:18:01.137Z,3.50
2023-04-25T15:20:30.570Z,1.35
2023-04-25T15:22:59.752Z,1.40
2023-04-25T15:25:30.848Z,1.30
2023-04-25T15:27:59.401Z,3.22
2023-04-25T15:30:28.011Z,1.30
2023-04-25T15:32:56.413Z,2.90
2023-04-25T15:35:25.303Z,1.83
2023-04-25T15:37:55.582Z,1.45
2023-04-25T15:40:30.482Z,1.10
2023-04-25T15:43:00.431Z,1.20
2023-04-25T15:45:29.951Z,1.52
2023-04-25T15:47:59.450Z,1.20
2023-04-25T15:50:28.675Z,2.05
2023-04-25T15:52:58.155Z,1.50
2023-04-25T15:55:28.206Z,1.20
2023-04-25T15:57:59.395Z,1.40
2023-04-25T16:00:31.429Z,1.08
2023-04-25T16:03:00.204Z,1.40
2023-04-25T16:05:31.961Z,1.20
2023-04-25T16:08:04.160Z,1.23
2023-04-25T16:10:34.663Z,1.10
2023-04-25T16:13:07.882Z,1.30
2023-04-25T16:15:38.053Z,1.60
2023-04-25T16:18:08.907Z,2.13
2023-04-25T16:20:39.096Z,1.38
2023-04-25T16:23:06.642Z,1.23
2023-04-25T16:25:37.160Z,1.35
2023-04-25T16:28:05.636Z,1.17
2023-04-25T16:30:35.335Z,1.00
2023-04-25T16:33:05.518Z,1.83
2023-04-25T16:35:34.158Z,1.38
2023-04-25T16:38:05.114Z,1.30
2023-04-25T16:40:33.885Z,2.27
2023-04-25T16:43:01.289Z,1.20
2023-04-25T16:45:32.139Z,1.60
2023-04-25T16:48:01.743Z,1.40
2023-04-25T16:50:31.602Z,1.10
2023-04-25T16:53:00.062Z,1.10
2023-04-25T16:55:28.547Z,1.33
2023-04-25T16:57:58.858Z,2.13
2023-04-25T17:00:36.265Z,2.60
2023-04-25T17:03:10.669Z,1.70
2023-04-25T17:05:45.061Z,1.00
2023-04-25T17:08:14.189Z,1.17
2023-04-25T17:10:45.840Z,1.23
2023-04-25T17:13:15.959Z,1.40
2023-04-25T17:15:45.758Z,1.23
2023-04-25T17:18:17.653Z,1.40
2023-04-25T17:20:50.241Z,1.20
2023-04-25T17:23:20.938Z,1.70
2023-04-25T17:25:52.020Z,1.20
2023-04-25T17:28:20.689Z,1.37
2023-04-25T17:30:48.332Z,1.10
2023-04-25T17:33:18.017Z,1.03
2023-04-25T17:35:46.607Z,0.90
2023-04-25T17:38:18.414Z,1.90
2023-04-25T17:40:48.065Z,2.67
2023-04-25T17:43:16.993Z,2.70
2023-04-25T17:45:46.292Z,1.20
2023-04-25T17:48:16.621Z,1.20
2023-04-25T17:50:45.207Z,1.30
2023-04-25T17:53:12.594Z,1.37
2023-04-25T17:55:44.960Z,1.17
2023-04-25T17:58:16.356Z,1.17
2023-04-25T18:00:49.015Z,1.00
2023-04-25T18:03:19.817Z,1.50
2023-04-25T18:05:51.177Z,1.37
2023-04-25T18:08:27.193Z,2.03
2023-04-25T18:11:05.431Z,1.50
2023-04-25T18:13:34.204Z,1.20
2023-04-25T18:16:02.350Z,1.30
2023-04-25T18:18:42.093Z,1.30
2023-04-25T18:21:11.235Z,1.87
2023-04-25T18:23:46.950Z,1.30
2023-04-25T18:26:17.402Z,1.00
2023-04-25T18:28:48.579Z,3.03
2023-04-25T18:31:24.034Z,2.37
2023-04-25T18:33:54.958Z,1.50
2023-04-25T18:36:23.511Z,1.77
2023-04-25T18:38:56.645Z,1.43
2023-04-25T18:41:52.099Z,1.30
2023-04-25T18:44:40.882Z,2.03
2023-04-25T18:47:11.740Z,1.30
2023-04-25T18:49:40.720Z,1.53
2023-04-25T18:52:13.124Z,1.40
2023-04-25T18:54:43.123Z,1.30
2023-04-25T18:57:15.577Z,1.30
2023-04-25T18:59:48.690Z,1.40
2023-04-25T19:02:23.680Z,2.40
2023-04-25T19:04:57.141Z,3.33
2023-04-25T19:07:33.000Z,1.53
2023-04-25T19:10:04.568Z,4.40
2023-04-25T19:12:37.284Z,1.60
2023-04-25T19:15:07.652Z,3.23
2023-04-25T19:17:40.085Z,1.40
2023-04-25T19:20:09.377Z,1.50
2023-04-25T19:22:39.148Z,2.17
2023-04-25T19:25:10.313Z,2.13
2023-04-25T19:27:42.630Z,1.50
2023-04-25T19:30:14.230Z,1.50
2023-04-25T19:32:41.733Z,1.60
2023-04-25T19:35:12.391Z,2.37
2023-04-25T19:37:48.628Z,2.63
2023-04-25T19:40:18.599Z,1.60
2023-04-25T19:42:47.613Z,2.50
2023-04-25T19:45:16.169Z,2.43
2023-04-25T19:47:45.422Z,2.77
2023-04-25T19:50:15.744Z,1.93
2023-04-25T19:52:44.365Z,2.77
2023-04-25T19:55:12.597Z,3.50
2023-04-25T19:57:41.645Z,4.30
2023-04-25T20:00:19.942Z,2.60
2023-04-25T20:02:53.400Z,2.87
2023-04-25T20:05:26.704Z,2.37
2023-04-25T20:07:58.946Z,6.23
2023-04-25T20:10:28.555Z,8.47
2023-04-25T20:12:57.220Z,4.23
2023-04-25T20:15:28.046Z,3.37
2023-04-25T20:17:56.656Z,2.80
2023-04-25T20:20:27.946Z,3.17
2023-04-25T20:22:56.596Z,3.07
2023-04-25T20:25:29.330Z,1.87
2023-04-25T20:28:05.806Z,2.17
2023-04-25T20:30:41.809Z,3.20
2023-04-25T20:33:17.933Z,1.90
2023-04-25T20:35:48.446Z,1.90
2023-04-25T20:41:01.268Z,1.43
2023-04-25T20:43:31.713Z,1.20
2023-04-25T20:46:00.906Z,1.20
2023-04-25T20:48:38.111Z,1.20
2023-04-25T20:51:24.383Z,1.23
2023-04-25T20:53:52.929Z,1.20
2023-04-25T20:56:24.783Z,1.33
2023-04-25T20:59:05.827Z,1.20
2023-04-25T21:01:38.691Z,1.40
2023-04-25T21:04:09.743Z,1.43
2023-04-25T21:06:39.872Z,2.03
2023-04-25T21:09:10.332Z,1.20
2023-04-25T21:11:40.901Z,1.30
2023-04-25T21:14:10.930Z,1.60
2023-04-25T21:16:39.275Z,1.40
2023-04-25T21:19:07.681Z,1.57
2023-04-25T21:21:40.146Z,1.40
2023-04-25T21:24:09.790Z,1.67
2023-04-25T21:26:36.880Z,1.40
2023-04-25T21:29:06.231Z,1.40
2023-04-25T21:31:38.154Z,1.40
2023-04-25T21:34:14.794Z,1.80
2023-04-25T21:36:46.219Z,1.47
2023-04-25T21:39:23.266Z,1.47
2023-04-25T21:41:51.908Z,1.50
2023-04-25T21:44:19.228Z,2.53
2023-04-25T21:46:46.921Z,1.23
2023-04-25T21:49:15.133Z,1.20
2023-04-25T21:51:44.443Z,1.40
2023-04-25T21:54:18.566Z,1.50
2023-04-25T21:56:46.980Z,2.00
2023-04-25T21:59:14.362Z,1.30
2023-04-25T22:01:45.685Z,1.30
2023-04-25T22:04:20.022Z,1.30
2023-04-25T22:06:57.471Z,1.30
2023-04-25T22:09:28.474Z,1.30
2023-04-25T22:12:02.300Z,1.30
2023-04-25T22:14:32.926Z,1.43
2023-04-25T22:17:03.640Z,1.70
2023-04-25T22:19:34.763Z,1.30
2023-04-25T22:22:04.958Z,2.53
2023-04-25T22:24:33.328Z,1.50
2023-04-25T22:27:02.625Z,1.50
2023-04-25T22:29:31.471Z,1.40
2023-04-25T22:32:03.370Z,1.80
2023-04-25T22:34:33.953Z,2.17
2023-04-25T22:37:01.029Z,1.37
2023-04-25T22:39:29.346Z,2.10
2023-04-25T22:41:58.826Z,1.53
2023-04-25T22:44:29.012Z,1.50
2023-04-25T22:46:59.747Z,1.50
2023-04-25T22:49:29.500Z,1.43
2023-04-25T22:51:57.613Z,1.47
2023-04-25T22:54:26.579Z,1.70
2023-04-25T22:56:56.221Z,1.70
2023-04-25T22:59:23.376Z,2.30
2023-04-25T23:01:53.582Z,1.73
2023-04-25T23:04:25.482Z,1.57
2023-04-25T23:06:54.155Z,1.50
2023-04-25T23:09:22.602Z,1.60
2023-04-25T23:11:54.938Z,2.80
2023-04-25T23:14:24.905Z,1.70
2023-04-25T23:16:58.524Z,1.40
2023-04-25T23:19:29.539Z,1.60
2023-04-25T23:22:01.020Z,1.60
2023-04-25T23:24:31.339Z,1.70
2023-04-25T23:27:00.188Z,1.50
2023-04-25T23:29:28.671Z,1.57
2023-04-25T23:32:00.177Z,1.40
2023-04-25T23:34:32.945Z,1.60
2023-04-25T23:37:09.158Z,1.83
2023-04-25T23:39:46.099Z,1.60
2023-04-25T23:42:14.785Z,1.20
2023-04-25T23:44:45.221Z,1.40
2023-04-25T23:47:18.135Z,1.90
2023-04-25T23:49:49.472Z,1.50
2023-04-25T23:52:19.721Z,1.23
2023-04-25T23:54:48.018Z,1.70
2023-04-25T23:57:17.933Z,1.43
2023-04-25T23:59:46.781Z,1.30
